Time;durP1;ratioP1;P1;durP2;ratioP2;P2;SDS_P1;SDS_P2;PMS_P1;PMS_P2;Temp;Humidity;BMP_temperature;BMP_pressure;BME280_temperature;BME280_humidity;BME280_pressure;Samples;Min_cycle;Max_cycle;Signal;HPM_P1;HPM_P2
2023/02/20 00:01:15;;;;;;;117.15;57.90;;;;;;;;;;6263327;28;20056;-70
2023/02/20 00:04:17;;;;;;;118.35;57.67;;;;;;;;;;6264412;28;20060;-70
2023/02/20 00:07:18;;;;;;;120.55;57.45;;;;;;;;;;6262373;28;20048;-70
2023/02/20 00:10:21;;;;;;;116.68;57.30;;;;;;;;;;6264464;28;20052;-70
2023/02/20 00:13:24;;;;;;;122.68;59.75;;;;;;;;;;6263372;28;20052;-70
2023/02/20 00:16:26;;;;;;;125.45;60.17;;;;;;;;;;6268057;28;20333;-70
2023/02/20 00:19:27;;;;;;;123.78;58.95;;;;;;;;;;6260423;28;20096;-70
2023/02/20 00:22:29;;;;;;;127.47;60.00;;;;;;;;;;6261462;28;20053;-70
2023/02/20 00:25:31;;;;;;;128.32;58.97;;;;;;;;;;6264335;28;20237;-70
2023/02/20 00:28:34;;;;;;;129.50;59.97;;;;;;;;;;6261845;28;20217;-70
2023/02/20 00:31:35;;;;;;;124.07;58.03;;;;;;;;;;6258809;28;20388;-70
2023/02/20 00:34:37;;;;;;;127.75;58.85;;;;;;;;;;6261293;28;20061;-70
2023/02/20 00:37:39;;;;;;;121.97;57.80;;;;;;;;;;6261314;28;20052;-70
2023/02/20 00:40:41;;;;;;;121.05;57.30;;;;;;;;;;6263574;28;20041;-70
2023/02/20 00:43:44;;;;;;;117.45;57.97;;;;;;;;;;6262302;28;20099;-69
2023/02/20 00:46:45;;;;;;;116.32;55.05;;;;;;;;;;6262866;28;20065;-71
2023/02/20 00:49:47;;;;;;;120.35;57.50;;;;;;;;;;6264386;28;20056;-70
2023/02/20 00:52:49;;;;;;;119.72;58.10;;;;;;;;;;6264666;28;20057;-70
2023/02/20 00:55:50;;;;;;;125.45;58.38;;;;;;;;;;6262956;28;20087;-70
2023/02/20 00:58:53;;;;;;;118.18;55.35;;;;;;;;;;6266257;28;20049;-71
2023/02/20 01:01:55;;;;;;;126.43;54.67;;;;;;;;;;6265689;28;20050;-70
2023/02/20 01:04:57;;;;;;;113.75;54.95;;;;;;;;;;6267175;28;20084;-70
2023/02/20 01:07:58;;;;;;;112.75;54.42;;;;;;;;;;6267256;28;20106;-70
2023/02/20 01:11:00;;;;;;;113.10;54.20;;;;;;;;;;6265791;28;20080;-70
2023/02/20 01:14:04;;;;;;;115.97;54.28;;;;;;;;;;6266830;28;20347;-70
2023/02/20 01:17:06;;;;;;;115.32;55.55;;;;;;;;;;6264276;28;20336;-70
2023/02/20 01:20:08;;;;;;;107.85;54.20;;;;;;;;;;6264456;28;20336;-71
2023/02/20 01:23:10;;;;;;;110.40;53.65;;;;;;;;;;6265011;28;20054;-70
2023/02/20 01:26:12;;;;;;;114.53;54.38;;;;;;;;;;6268700;28;20050;-70
2023/02/20 01:29:16;;;;;;;109.45;52.60;;;;;;;;;;6265918;28;20053;-70
2023/02/20 01:32:17;;;;;;;106.63;53.72;;;;;;;;;;6269596;28;20052;-70
2023/02/20 01:35:19;;;;;;;114.10;53.33;;;;;;;;;;6266289;28;20080;-70
2023/02/20 01:38:21;;;;;;;112.75;52.58;;;;;;;;;;6267743;28;20119;-70
2023/02/20 01:41:23;;;;;;;112.75;52.25;;;;;;;;;;6266072;28;20103;-70
2023/02/20 01:44:28;;;;;;;114.15;53.03;;;;;;;;;;6267426;28;20403;-70
2023/02/20 01:47:30;;;;;;;113.15;52.85;;;;;;;;;;6266934;28;20289;-70
2023/02/20 01:50:35;;;;;;;112.25;51.28;;;;;;;;;;6267890;28;20092;-70
2023/02/20 01:53:37;;;;;;;111.93;53.00;;;;;;;;;;6263907;28;20053;-71
2023/02/20 01:56:39;;;;;;;112.50;54.33;;;;;;;;;;6267866;28;20244;-72
2023/02/20 01:59:42;;;;;;;109.95;52.80;;;;;;;;;;6269223;28;20041;-70
2023/02/20 02:02:47;;;;;;;112.60;52.43;;;;;;;;;;6266689;28;20119;-70
2023/02/20 02:05:53;;;;;;;118.90;52.20;;;;;;;;;;6267908;28;20337;-70
2023/02/20 02:08:56;;;;;;;113.72;53.50;;;;;;;;;;6266870;28;20099;-70
2023/02/20 02:11:58;;;;;;;111.78;52.40;;;;;;;;;;6264409;28;20040;-70
2023/02/20 02:15:01;;;;;;;108.05;51.67;;;;;;;;;;6264936;28;20264;-70
2023/02/20 02:18:15;;;;;;;108.05;50.67;;;;;;;;;;6255279;28;20053;-70
2023/02/20 02:22:06;;;;;;;107.50;50.80;;;;;;;;;;6243750;28;20041;-70
2023/02/20 02:25:21;;;;;;;112.18;52.47;;;;;;;;;;6189052;28;20046;-70
2023/02/20 02:28:55;;;;;;;115.28;52.28;;;;;;;;;;6191004;28;20508;-70
2023/02/20 02:32:35;;;;;;;114.53;52.10;;;;;;;;;;6183056;28;21074;-70
2023/02/20 02:36:11;;;;;;;107.95;49.58;;;;;;;;;;6168432;28;20042;-70
2023/02/20 02:39:17;;;;;;;112.78;51.92;;;;;;;;;;6161794;28;20061;-70
2023/02/20 02:42:24;;;;;;;116.93;51.92;;;;;;;;;;6193800;28;20054;-70
2023/02/20 02:45:30;;;;;;;109.35;51.55;;;;;;;;;;6190243;28;20093;-70
2023/02/20 02:48:36;;;;;;;113.00;53.28;;;;;;;;;;6190227;28;20301;-70
2023/02/20 02:51:44;;;;;;;103.85;52.10;;;;;;;;;;6193662;28;20050;-70
2023/02/20 02:54:46;;;;;;;114.78;53.05;;;;;;;;;;6190982;28;20058;-70
2023/02/20 02:57:48;;;;;;;115.90;53.13;;;;;;;;;;6194774;28;20058;-70
2023/02/20 03:00:53;;;;;;;120.10;54.05;;;;;;;;;;6263139;28;20057;-70
2023/02/20 03:03:55;;;;;;;121.05;56.08;;;;;;;;;;6264465;28;20099;-70
2023/02/20 03:07:00;;;;;;;116.53;54.78;;;;;;;;;;6264031;28;20228;-70
2023/02/20 03:10:06;;;;;;;114.38;53.38;;;;;;;;;;6261432;28;20047;-70
2023/02/20 03:13:11;;;;;;;112.57;52.60;;;;;;;;;;6265334;28;20053;-70
2023/02/20 03:16:14;;;;;;;117.35;54.97;;;;;;;;;;6262365;28;20068;-70
2023/02/20 03:19:20;;;;;;;120.00;53.70;;;;;;;;;;6263195;28;20045;-70
2023/02/20 03:22:26;;;;;;;121.75;55.25;;;;;;;;;;6264720;28;20162;-70
2023/02/20 03:25:31;;;;;;;133.05;57.72;;;;;;;;;;6262877;28;20088;-70
2023/02/20 03:28:38;;;;;;;127.90;56.58;;;;;;;;;;6263333;28;20348;-70
2023/02/20 03:31:42;;;;;;;124.45;56.53;;;;;;;;;;6265653;28;20053;-70
2023/02/20 03:44:47;;;;;;;130.73;58.42;;;;;;;;;;6264541;28;20057;-68
2023/02/20 03:47:51;;;;;;;131.30;58.13;;;;;;;;;;6264565;28;20065;-70
2023/02/20 03:50:53;;;;;;;126.88;57.13;;;;;;;;;;6268134;28;20049;-70
2023/02/20 03:53:57;;;;;;;125.72;57.95;;;;;;;;;;6260248;28;20061;-70
2023/02/20 03:57:02;;;;;;;134.23;58.88;;;;;;;;;;6263142;28;20361;-69
2023/02/20 04:00:06;;;;;;;140.57;60.35;;;;;;;;;;6263602;28;20044;-69
2023/02/20 04:03:11;;;;;;;133.73;59.65;;;;;;;;;;6263124;28;20045;-69
2023/02/20 04:06:13;;;;;;;128.23;58.13;;;;;;;;;;6262898;28;20084;-68
2023/02/20 04:09:19;;;;;;;133.70;58.05;;;;;;;;;;6262228;28;20060;-69
2023/02/20 04:12:23;;;;;;;131.07;58.97;;;;;;;;;;6265674;28;20046;-69
2023/02/20 04:15:25;;;;;;;137.38;59.15;;;;;;;;;;6264213;28;20045;-69
2023/02/20 04:18:29;;;;;;;128.75;58.22;;;;;;;;;;6264672;28;20103;-70
2023/02/20 04:21:34;;;;;;;137.40;62.03;;;;;;;;;;6262902;28;20053;-69
2023/02/20 04:24:42;;;;;;;139.48;58.10;;;;;;;;;;6263150;28;20049;-70
2023/02/20 04:27:44;;;;;;;137.88;58.25;;;;;;;;;;6263260;28;20049;-70
2023/02/20 04:30:46;;;;;;;123.85;56.85;;;;;;;;;;6262492;28;20065;-70
2023/02/20 04:33:47;;;;;;;136.93;58.47;;;;;;;;;;6264034;28;20041;-70
2023/02/20 04:36:50;;;;;;;140.32;61.38;;;;;;;;;;6271598;28;20083;-70
2023/02/20 04:39:53;;;;;;;131.65;60.42;;;;;;;;;;6269417;28;20336;-69
2023/02/20 04:42:54;;;;;;;142.80;63.15;;;;;;;;;;6266246;28;20045;-70
2023/02/20 04:45:56;;;;;;;136.90;59.78;;;;;;;;;;6263499;28;20057;-69
2023/02/20 04:48:58;;;;;;;142.57;60.67;;;;;;;;;;6268798;28;20053;-69
2023/02/20 04:52:00;;;;;;;136.57;60.33;;;;;;;;;;6265724;28;20368;-70
2023/02/20 04:55:03;;;;;;;139.02;60.70;;;;;;;;;;6266730;28;20100;-69
2023/02/20 04:58:05;;;;;;;140.70;62.58;;;;;;;;;;6265402;28;20257;-69
2023/02/20 05:01:06;;;;;;;133.65;61.47;;;;;;;;;;6265430;28;20102;-70
2023/02/20 05:04:08;;;;;;;145.70;64.38;;;;;;;;;;6265982;28;20056;-70
2023/02/20 05:07:10;;;;;;;144.60;60.83;;;;;;;;;;6266251;28;20404;-69
2023/02/20 05:10:15;;;;;;;140.70;61.10;;;;;;;;;;6267379;28;20052;-69
2023/02/20 05:13:16;;;;;;;132.77;59.75;;;;;;;;;;6266253;28;20056;-70
2023/02/20 05:16:18;;;;;;;150.65;62.80;;;;;;;;;;6267091;28;20405;-69
2023/02/20 05:19:20;;;;;;;145.60;62.28;;;;;;;;;;6264863;28;20113;-69
2023/02/20 05:22:21;;;;;;;146.43;64.28;;;;;;;;;;6267212;28;20268;-69
2023/02/20 05:25:24;;;;;;;142.02;61.55;;;;;;;;;;6266761;28;20060;-70
2023/02/20 05:28:26;;;;;;;150.63;63.65;;;;;;;;;;6264689;28;20053;-70
2023/02/20 05:31:28;;;;;;;150.98;65.35;;;;;;;;;;6268501;28;20339;-69
2023/02/20 05:34:30;;;;;;;142.95;62.88;;;;;;;;;;6267261;28;20053;-69
2023/02/20 05:37:31;;;;;;;149.27;64.32;;;;;;;;;;6266839;28;22128;-69
2023/02/20 05:40:34;;;;;;;148.45;63.67;;;;;;;;;;6265272;28;20094;-70
2023/02/20 05:43:36;;;;;;;144.35;62.47;;;;;;;;;;6265200;28;20095;-69
2023/02/20 05:46:40;;;;;;;140.57;61.83;;;;;;;;;;6267324;28;20053;-69
2023/02/20 05:49:41;;;;;;;152.18;63.75;;;;;;;;;;6266159;28;20053;-69
2023/02/20 05:52:43;;;;;;;139.48;63.20;;;;;;;;;;6267492;28;20997;-70
2023/02/20 05:55:46;;;;;;;153.73;63.97;;;;;;;;;;6265175;28;20056;-70
2023/02/20 05:58:48;;;;;;;151.13;65.47;;;;;;;;;;6266622;28;20056;-70
2023/02/20 06:01:56;;;;;;;147.15;64.95;;;;;;;;;;6265468;28;20226;-69
2023/02/20 06:04:58;;;;;;;142.05;63.35;;;;;;;;;;6262232;28;20053;-69
2023/02/20 06:08:00;;;;;;;161.85;69.45;;;;;;;;;;6264803;28;20067;-69
2023/02/20 06:11:03;;;;;;;147.18;63.63;;;;;;;;;;6262572;28;20049;-69
2023/02/20 06:14:05;;;;;;;152.60;65.72;;;;;;;;;;6265330;28;20049;-72
2023/02/20 06:17:06;;;;;;;154.18;67.10;;;;;;;;;;6266035;28;20111;-69
2023/02/20 06:20:08;;;;;;;156.85;63.38;;;;;;;;;;6264601;28;20079;-70
2023/02/20 06:23:10;;;;;;;154.90;63.80;;;;;;;;;;6266501;28;20356;-70
2023/02/20 06:26:14;;;;;;;154.55;65.93;;;;;;;;;;6263811;28;20217;-70
2023/02/20 06:29:17;;;;;;;157.73;65.23;;;;;;;;;;6264484;28;20320;-71
2023/02/20 06:32:18;;;;;;;145.45;63.78;;;;;;;;;;6266460;28;20471;-71
2023/02/20 06:35:20;;;;;;;154.30;65.38;;;;;;;;;;6263337;28;20049;-71
2023/02/20 06:38:22;;;;;;;148.90;66.07;;;;;;;;;;6268177;28;20242;-70
2023/02/20 06:41:25;;;;;;;149.50;65.90;;;;;;;;;;6264276;28;20057;-71
2023/02/20 06:44:27;;;;;;;140.17;63.13;;;;;;;;;;6263835;28;20064;-70
2023/02/20 06:47:29;;;;;;;155.38;64.95;;;;;;;;;;6263214;28;20060;-70
2023/02/20 06:50:30;;;;;;;148.85;66.38;;;;;;;;;;6263201;28;20057;-70
2023/02/20 06:53:36;;;;;;;150.60;64.10;;;;;;;;;;6263150;28;20049;-70
2023/02/20 06:56:40;;;;;;;149.25;64.82;;;;;;;;;;6264790;28;20333;-70
2023/02/20 06:59:42;;;;;;;158.63;66.55;;;;;;;;;;6263178;28;20053;-70
2023/02/20 07:02:44;;;;;;;148.20;62.85;;;;;;;;;;6263551;28;20108;-70
2023/02/20 07:05:46;;;;;;;158.02;65.13;;;;;;;;;;6265127;28;20468;-70
2023/02/20 07:08:47;;;;;;;160.85;66.40;;;;;;;;;;6265389;28;20057;-71
2023/02/20 07:11:52;;;;;;;152.27;62.47;;;;;;;;;;6264838;28;20057;-70
2023/02/20 07:14:54;;;;;;;153.30;62.95;;;;;;;;;;6262042;28;20041;-71
2023/02/20 07:17:55;;;;;;;151.73;65.85;;;;;;;;;;6264009;28;20045;-70
2023/02/20 07:20:57;;;;;;;156.35;63.85;;;;;;;;;;6258304;28;20434;-69
2023/02/20 07:23:59;;;;;;;152.10;61.55;;;;;;;;;;6266150;28;20107;-70
2023/02/20 07:27:02;;;;;;;153.57;64.00;;;;;;;;;;6267031;28;20076;-70
2023/02/20 07:30:04;;;;;;;157.77;64.63;;;;;;;;;;6263830;28;20103;-70
2023/02/20 07:33:06;;;;;;;149.38;65.05;;;;;;;;;;6262197;28;20054;-70
2023/02/20 07:36:09;;;;;;;148.10;65.00;;;;;;;;;;6262891;28;20129;-70
2023/02/20 07:39:12;;;;;;;142.18;62.00;;;;;;;;;;6262250;28;20045;-70
2023/02/20 07:42:17;;;;;;;142.73;64.05;;;;;;;;;;6263592;28;20258;-70
2023/02/20 07:45:19;;;;;;;144.35;63.53;;;;;;;;;;6262218;28;20245;-70
2023/02/20 07:48:20;;;;;;;144.23;64.18;;;;;;;;;;6265424;28;20348;-70
2023/02/20 07:51:22;;;;;;;142.10;60.75;;;;;;;;;;6264488;28;20057;-71
2023/02/20 07:54:25;;;;;;;139.48;62.08;;;;;;;;;;6262416;28;20051;-70
2023/02/20 07:57:29;;;;;;;133.50;62.40;;;;;;;;;;6263301;28;20072;-70
2023/02/20 08:00:31;;;;;;;135.98;62.13;;;;;;;;;;6264545;28;20063;-70
2023/02/20 08:03:32;;;;;;;134.63;60.85;;;;;;;;;;6263228;28;20099;-70
2023/02/20 08:06:34;;;;;;;139.85;61.85;;;;;;;;;;6263923;28;20403;-70
2023/02/20 08:09:36;;;;;;;132.88;60.30;;;;;;;;;;6261431;28;20042;-70
2023/02/20 08:12:39;;;;;;;133.02;62.17;;;;;;;;;;6265070;28;20053;-70
2023/02/20 08:15:43;;;;;;;126.85;60.20;;;;;;;;;;6263283;28;20057;-70
2023/02/20 08:18:45;;;;;;;139.65;61.85;;;;;;;;;;6261834;28;20780;-71
2023/02/20 08:21:46;;;;;;;134.55;60.78;;;;;;;;;;6264034;28;20049;-70
2023/02/20 08:24:48;;;;;;;133.35;61.83;;;;;;;;;;6262390;28;20064;-70
2023/02/20 08:27:51;;;;;;;130.25;61.17;;;;;;;;;;6261054;28;20053;-70
2023/02/20 08:30:53;;;;;;;134.20;60.08;;;;;;;;;;6263342;28;20271;-70
2023/02/20 08:33:54;;;;;;;136.65;61.92;;;;;;;;;;6263898;28;20186;-70
2023/02/20 08:36:56;;;;;;;131.75;59.88;;;;;;;;;;6262645;28;20053;-71
2023/02/20 08:39:58;;;;;;;130.90;58.97;;;;;;;;;;6264780;28;20276;-70
2023/02/20 08:43:01;;;;;;;129.52;61.78;;;;;;;;;;6263966;28;20106;-71
2023/02/20 08:46:03;;;;;;;132.45;59.05;;;;;;;;;;6264954;28;20056;-70
2023/02/20 08:49:04;;;;;;;134.27;59.58;;;;;;;;;;6262029;28;20065;-71
2023/02/20 08:52:07;;;;;;;134.52;60.42;;;;;;;;;;6264242;28;20336;-70
2023/02/20 08:55:08;;;;;;;132.18;58.28;;;;;;;;;;6261429;28;20080;-71
2023/02/20 08:58:12;;;;;;;131.80;59.85;;;;;;;;;;6263328;28;20099;-70
2023/02/20 09:01:14;;;;;;;131.63;60.30;;;;;;;;;;6262995;28;20057;-70
2023/02/20 09:04:16;;;;;;;132.73;58.30;;;;;;;;;;6264259;28;20067;-71
2023/02/20 09:07:17;;;;;;;131.20;58.70;;;;;;;;;;6264560;28;20049;-71
2023/02/20 09:10:19;;;;;;;129.30;59.38;;;;;;;;;;6263790;28;20045;-70
2023/02/20 09:13:22;;;;;;;135.52;58.38;;;;;;;;;;6261200;28;20067;-70
2023/02/20 09:16:24;;;;;;;123.97;57.83;;;;;;;;;;6264875;28;20072;-70
2023/02/20 09:19:26;;;;;;;126.07;59.17;;;;;;;;;;6260538;28;20068;-71
2023/02/20 09:22:28;;;;;;;119.68;56.70;;;;;;;;;;6264278;28;20111;-70
2023/02/20 09:25:30;;;;;;;121.65;55.90;;;;;;;;;;6265393;28;20061;-70
2023/02/20 09:28:33;;;;;;;122.85;56.30;;;;;;;;;;6264304;28;20608;-70
2023/02/20 09:31:34;;;;;;;120.35;57.17;;;;;;;;;;6267925;28;20060;-70
2023/02/20 09:34:36;;;;;;;122.70;56.25;;;;;;;;;;6267374;28;20049;-70
2023/02/20 09:37:38;;;;;;;114.07;54.60;;;;;;;;;;6266613;28;20054;-70
2023/02/20 09:40:40;;;;;;;124.50;57.17;;;;;;;;;;6265848;28;20116;-70
2023/02/20 09:43:49;;;;;;;120.53;56.58;;;;;;;;;;6264560;28;20067;-70
2023/02/20 09:46:52;;;;;;;118.88;57.28;;;;;;;;;;6263940;28;20057;-71
2023/02/20 09:49:57;;;;;;;122.27;56.90;;;;;;;;;;6265166;28;20211;-71
2023/02/20 09:53:06;;;;;;;120.45;56.80;;;;;;;;;;6264511;28;20061;-70
2023/02/20 09:56:11;;;;;;;125.20;57.38;;;;;;;;;;6266171;28;20049;-70
2023/02/20 09:59:17;;;;;;;121.82;56.13;;;;;;;;;;6264610;28;20052;-71
2023/02/20 10:02:22;;;;;;;123.07;57.22;;;;;;;;;;6266495;28;20100;-70
2023/02/20 10:05:26;;;;;;;117.90;55.45;;;;;;;;;;6264451;28;20065;-70
2023/02/20 10:08:28;;;;;;;117.78;53.38;;;;;;;;;;6267203;28;20045;-71
2023/02/20 10:11:50;;;;;;;116.97;57.00;;;;;;;;;;6262863;28;20056;-70
2023/02/20 10:15:01;;;;;;;115.60;55.85;;;;;;;;;;6266495;28;20048;-70
2023/02/20 10:18:12;;;;;;;112.00;55.17;;;;;;;;;;6263291;28;20088;-70
2023/02/20 10:21:18;;;;;;;103.18;52.13;;;;;;;;;;6262523;28;20064;-70
2023/02/20 10:24:31;;;;;;;112.72;52.90;;;;;;;;;;6268642;28;20056;-70
2023/02/20 10:27:41;;;;;;;111.25;52.75;;;;;;;;;;6265189;28;20438;-70
2023/02/20 10:30:46;;;;;;;109.07;51.15;;;;;;;;;;6264780;28;20049;-70
2023/02/20 10:33:52;;;;;;;101.53;50.78;;;;;;;;;;6264222;28;20058;-70
2023/02/20 10:36:57;;;;;;;107.90;49.80;;;;;;;;;;6266257;28;20052;-71
2023/02/20 10:40:02;;;;;;;108.43;52.60;;;;;;;;;;6264827;28;20049;-70
2023/02/20 10:43:09;;;;;;;105.03;51.85;;;;;;;;;;6262784;28;20057;-70
2023/02/20 10:46:16;;;;;;;100.60;50.55;;;;;;;;;;6265346;28;20057;-70
2023/02/20 10:49:21;;;;;;;107.20;50.08;;;;;;;;;;6265550;28;20045;-71
2023/02/20 10:52:25;;;;;;;105.05;49.92;;;;;;;;;;6266489;28;20060;-70
2023/02/20 10:55:33;;;;;;;108.40;50.38;;;;;;;;;;6263449;28;20046;-70
2023/02/20 10:58:38;;;;;;;100.78;49.20;;;;;;;;;;6264704;28;20057;-70
2023/02/20 11:01:41;;;;;;;99.45;50.10;;;;;;;;;;6264700;28;20107;-70
2023/02/20 11:04:48;;;;;;;101.30;49.30;;;;;;;;;;6266524;28;20067;-70
2023/02/20 11:07:50;;;;;;;100.10;48.17;;;;;;;;;;6264633;28;20137;-70
2023/02/20 11:10:56;;;;;;;97.32;47.67;;;;;;;;;;6245376;28;20104;-71
2023/02/20 11:13:59;;;;;;;96.07;49.40;;;;;;;;;;6239839;28;20048;-71
2023/02/20 11:17:07;;;;;;;98.82;49.25;;;;;;;;;;6239929;28;20057;-70
2023/02/20 11:20:46;;;;;;;94.70;47.50;;;;;;;;;;6262315;28;20049;-70
2023/02/20 11:23:47;;;;;;;94.45;44.72;;;;;;;;;;6258736;28;20057;-71
2023/02/20 11:26:50;;;;;;;91.75;46.15;;;;;;;;;;6265278;28;20379;-70
2023/02/20 11:29:55;;;;;;;95.55;48.35;;;;;;;;;;6263012;28;20095;-71
2023/02/20 11:33:04;;;;;;;94.97;46.92;;;;;;;;;;6262635;28;20364;-70
2023/02/20 11:36:12;;;;;;;89.53;46.13;;;;;;;;;;6263665;28;20049;-70
2023/02/20 11:39:20;;;;;;;87.00;45.28;;;;;;;;;;6263825;28;20053;-70
2023/02/20 11:42:22;;;;;;;90.45;47.72;;;;;;;;;;6262765;28;20357;-70
2023/02/20 11:45:28;;;;;;;85.65;46.92;;;;;;;;;;6262071;28;20068;-71
2023/02/20 11:48:31;;;;;;;86.82;46.13;;;;;;;;;;6262876;28;20332;-71
2023/02/20 11:51:36;;;;;;;83.07;46.37;;;;;;;;;;6264971;28;20115;-71
2023/02/20 11:54:38;;;;;;;84.60;46.17;;;;;;;;;;6260974;28;20061;-70
2023/02/20 11:57:43;;;;;;;83.80;46.03;;;;;;;;;;6263904;28;20045;-70
2023/02/20 12:00:47;;;;;;;84.72;47.33;;;;;;;;;;6264304;28;20317;-71
2023/02/20 12:03:56;;;;;;;86.70;47.28;;;;;;;;;;6263204;28;20068;-71
2023/02/20 12:06:58;;;;;;;85.18;47.25;;;;;;;;;;6261673;28;20276;-71
2023/02/20 12:10:04;;;;;;;87.95;47.45;;;;;;;;;;6262405;28;20124;-70
2023/02/20 12:13:07;;;;;;;87.38;47.83;;;;;;;;;;6261574;28;20341;-71
2023/02/20 12:16:22;;;;;;;92.65;47.70;;;;;;;;;;6261598;28;20111;-70
2023/02/20 12:19:31;;;;;;;88.22;49.00;;;;;;;;;;6264415;28;20103;-71
2023/02/20 12:22:34;;;;;;;84.07;47.47;;;;;;;;;;6261523;28;20059;-71
2023/02/20 12:25:45;;;;;;;79.80;45.33;;;;;;;;;;6260709;28;20049;-71
2023/02/20 12:28:55;;;;;;;83.03;49.10;;;;;;;;;;6261478;28;20371;-71
2023/02/20 12:32:07;;;;;;;80.28;47.35;;;;;;;;;;6264268;28;20057;-71
2023/02/20 12:35:31;;;;;;;78.45;45.50;;;;;;;;;;6261564;28;20138;-71
2023/02/20 12:38:40;;;;;;;80.10;44.80;;;;;;;;;;6263131;28;20156;-71
2023/02/20 12:41:49;;;;;;;86.57;45.90;;;;;;;;;;6263844;28;20125;-71
2023/02/20 12:45:10;;;;;;;86.00;44.58;;;;;;;;;;6260547;28;20058;-71
2023/02/20 12:48:26;;;;;;;80.93;45.38;;;;;;;;;;6262757;28;20076;-70
2023/02/20 12:51:36;;;;;;;80.47;45.13;;;;;;;;;;6263863;28;20066;-71
2023/02/20 12:54:42;;;;;;;77.90;46.40;;;;;;;;;;6266481;28;20049;-71
2023/02/20 12:57:48;;;;;;;80.07;45.85;;;;;;;;;;6266701;28;20045;-71
2023/02/20 13:00:53;;;;;;;82.90;46.35;;;;;;;;;;6266309;28;20053;-71
2023/02/20 13:04:03;;;;;;;82.97;46.30;;;;;;;;;;6271855;28;20048;-70
2023/02/20 13:07:14;;;;;;;84.50;44.67;;;;;;;;;;6271866;28;20735;-71
2023/02/20 13:10:18;;;;;;;87.28;46.47;;;;;;;;;;6268970;28;20266;-70
2023/02/20 13:13:19;;;;;;;;;;;;;;;;;;6269563;28;20045;-71
2023/02/20 13:16:26;;;;;;;83.63;44.55;;;;;;;;;;6270160;28;20261;-71
2023/02/20 13:19:31;;;;;;;79.38;45.60;;;;;;;;;;6266027;28;20179;-71
2023/02/20 13:22:34;;;;;;;85.25;47.25;;;;;;;;;;6266806;28;20053;-71
2023/02/20 13:25:40;;;;;;;89.27;48.07;;;;;;;;;;6268776;28;20061;-71
2023/02/20 13:28:45;;;;;;;85.05;47.92;;;;;;;;;;6266930;28;20391;-71
2023/02/20 13:31:48;;;;;;;86.47;47.45;;;;;;;;;;6267749;28;20047;-71
2023/02/20 13:34:50;;;;;;;90.78;50.38;;;;;;;;;;6265321;28;20581;-71
2023/02/20 13:37:55;;;;;;;90.20;50.63;;;;;;;;;;6270161;28;20048;-70
2023/02/20 13:41:05;;;;;;;94.15;51.05;;;;;;;;;;6263513;28;20049;-71
2023/02/20 13:44:40;;;;;;;96.63;51.92;;;;;;;;;;6264852;28;20072;-71
2023/02/20 13:47:41;;;;;;;94.63;51.63;;;;;;;;;;6264027;28;20213;-71
2023/02/20 13:50:43;;;;;;;101.47;53.47;;;;;;;;;;6267032;28;20060;-71
2023/02/20 13:53:49;;;;;;;104.72;54.13;;;;;;;;;;6265128;28;20084;-70
2023/02/20 13:56:55;;;;;;;91.97;48.88;;;;;;;;;;6267619;28;20287;-71
2023/02/20 13:59:57;;;;;;;100.50;50.30;;;;;;;;;;6267335;28;20064;-71
2023/02/20 14:02:59;;;;;;;97.13;52.33;;;;;;;;;;6265667;28;20405;-71
2023/02/20 14:06:06;;;;;;;87.88;48.83;;;;;;;;;;6269274;28;21165;-71
2023/02/20 14:09:11;;;;;;;91.00;51.58;;;;;;;;;;6265613;28;20103;-71
2023/02/20 14:12:13;;;;;;;104.55;53.58;;;;;;;;;;6265959;28;20048;-70
2023/02/20 14:15:15;;;;;;;101.82;53.45;;;;;;;;;;6265334;28;20357;-71
2023/02/20 14:18:19;;;;;;;100.82;53.55;;;;;;;;;;6265299;28;20399;-70
2023/02/20 14:21:22;;;;;;;96.38;52.60;;;;;;;;;;6265930;28;20328;-71
2023/02/20 14:24:28;;;;;;;103.10;54.30;;;;;;;;;;6266904;28;20104;-71
2023/02/20 14:27:32;;;;;;;100.07;54.03;;;;;;;;;;6266515;28;20053;-71
2023/02/20 14:30:34;;;;;;;100.60;53.00;;;;;;;;;;6269307;28;20041;-70
2023/02/20 14:33:36;;;;;;;102.78;53.85;;;;;;;;;;6270927;28;20091;-71
2023/02/20 14:36:47;;;;;;;97.60;52.70;;;;;;;;;;6270154;28;20137;-70
2023/02/20 14:39:56;;;;;;;101.72;49.95;;;;;;;;;;6269073;28;20094;-72
2023/02/20 14:43:00;;;;;;;86.75;46.88;;;;;;;;;;6268077;28;20045;-70
2023/02/20 14:46:04;;;;;;;90.28;47.72;;;;;;;;;;6273223;28;20049;-71
2023/02/20 14:49:08;;;;;;;92.70;47.80;;;;;;;;;;6265227;28;20056;-71
2023/02/20 14:52:18;;;;;;;;;;;;;;;;;;6269776;28;20057;-70
2023/02/20 14:55:26;;;;;;;74.03;40.13;;;;;;;;;;6267112;28;19978;-70
2023/02/20 14:58:27;;;;;;;70.93;39.05;;;;;;;;;;6271187;28;20313;-70
2023/02/20 15:01:37;;;;;;;61.58;33.25;;;;;;;;;;6263223;28;20116;-70
2023/02/20 15:04:47;;;;;;;60.60;33.13;;;;;;;;;;6265531;28;20325;-71
2023/02/20 15:07:48;;;;;;;56.92;31.50;;;;;;;;;;6263725;28;20048;-71
2023/02/20 15:10:52;;;;;;;58.80;32.13;;;;;;;;;;6263596;28;20106;-71
2023/02/20 15:13:54;;;;;;;57.10;32.05;;;;;;;;;;6264601;28;20064;-70
2023/02/20 15:17:20;;;;;;;59.17;32.33;;;;;;;;;;6261982;28;20064;-71
2023/02/20 15:20:37;;;;;;;58.85;32.58;;;;;;;;;;6261976;28;20061;-71
2023/02/20 15:23:40;;;;;;;58.67;32.22;;;;;;;;;;6262969;28;20091;-71
2023/02/20 15:26:43;;;;;;;62.35;33.00;;;;;;;;;;6264876;28;20523;-71
2023/02/20 15:29:46;;;;;;;61.90;33.85;;;;;;;;;;6267917;28;20102;-71
2023/02/20 15:32:52;;;;;;;63.90;33.73;;;;;;;;;;6265997;28;20055;-69
2023/02/20 15:35:54;;;;;;;59.40;32.65;;;;;;;;;;6265014;28;20059;-70
2023/02/20 15:38:56;;;;;;;62.08;33.72;;;;;;;;;;6262518;28;20128;-70
2023/02/20 15:41:59;;;;;;;62.42;34.75;;;;;;;;;;6264036;28;20068;-71
2023/02/20 15:45:01;;;;;;;63.43;33.87;;;;;;;;;;6263518;28;20352;-71
2023/02/20 15:48:03;;;;;;;62.90;33.72;;;;;;;;;;6264962;28;20061;-70
2023/02/20 15:51:05;;;;;;;66.82;35.25;;;;;;;;;;6264150;28;20053;-71
2023/02/20 15:54:07;;;;;;;59.70;34.22;;;;;;;;;;6265112;28;20287;-70
2023/02/20 15:57:16;;;;;;;59.83;32.53;;;;;;;;;;6264414;28;20292;-71
2023/02/20 16:00:20;;;;;;;58.20;33.00;;;;;;;;;;6263471;28;20052;-71
2023/02/20 16:03:22;;;;;;;61.10;33.13;;;;;;;;;;6263148;28;20057;-70
2023/02/20 16:06:24;;;;;;;60.42;31.95;;;;;;;;;;6266041;28;20351;-70
2023/02/20 16:09:26;;;;;;;58.33;32.40;;;;;;;;;;6264876;28;20292;-71
2023/02/20 16:12:32;;;;;;;59.17;32.45;;;;;;;;;;6263890;28;20112;-70
2023/02/20 16:15:33;;;;;;;59.80;31.92;;;;;;;;;;6265080;28;20037;-70
2023/02/20 16:18:35;;;;;;;56.03;30.63;;;;;;;;;;6266798;28;20053;-70
2023/02/20 16:21:37;;;;;;;59.03;30.58;;;;;;;;;;6267234;28;20041;-71
2023/02/20 16:24:41;;;;;;;56.72;30.67;;;;;;;;;;6265964;28;20045;-70
2023/02/20 16:27:44;;;;;;;;;;;;;;;;;;6262949;28;20061;-70
2023/02/20 16:30:46;;;;;;;53.47;28.92;;;;;;;;;;6266190;28;19929;-71
2023/02/20 16:33:48;;;;;;;57.58;29.50;;;;;;;;;;6261227;28;20124;-71
2023/02/20 16:36:50;;;;;;;61.53;30.83;;;;;;;;;;6262883;28;20137;-71
2023/02/20 16:39:52;;;;;;;62.88;28.88;;;;;;;;;;6270040;28;20049;-71
2023/02/20 16:42:55;;;;;;;57.08;29.33;;;;;;;;;;6267153;28;20045;-71
2023/02/20 16:45:57;;;;;;;50.22;28.27;;;;;;;;;;6265385;28;20158;-71
2023/02/20 16:48:59;;;;;;;58.72;29.98;;;;;;;;;;6267410;28;20080;-70
2023/02/20 16:52:01;;;;;;;51.80;29.05;;;;;;;;;;6269532;28;20052;-70
2023/02/20 16:55:03;;;;;;;54.67;29.05;;;;;;;;;;6264015;28;20057;-70
2023/02/20 16:58:06;;;;;;;58.30;29.38;;;;;;;;;;6266117;28;20106;-70
2023/02/20 17:01:09;;;;;;;53.80;30.83;;;;;;;;;;6267990;28;20337;-71
2023/02/20 17:04:13;;;;;;;54.30;29.90;;;;;;;;;;6270536;28;20057;-71
2023/02/20 17:07:14;;;;;;;;;;;;;;;;;;6269352;28;20245;-71
2023/02/20 17:10:16;;;;;;;55.70;29.65;;;;;;;;;;6268022;28;19917;-71
2023/02/20 17:13:20;;;;;;;61.33;31.33;;;;;;;;;;6265359;28;21116;-71
2023/02/20 17:16:21;;;;;;;60.10;32.13;;;;;;;;;;6262293;28;20087;-71
2023/02/20 17:19:23;;;;;;;63.05;32.58;;;;;;;;;;6266391;28;20067;-71
2023/02/20 17:22:25;;;;;;;157.35;94.85;;;;;;;;;;6268772;28;20053;-73
2023/02/20 17:25:27;;;;;;;68.78;36.47;;;;;;;;;;6263447;28;20048;-71
2023/02/20 17:28:30;;;;;;;67.57;34.85;;;;;;;;;;6276582;28;20049;-71
2023/02/20 17:31:32;;;;;;;63.85;34.15;;;;;;;;;;6264541;28;20053;-71
2023/02/20 17:34:34;;;;;;;64.22;33.30;;;;;;;;;;6267546;28;20052;-71
2023/02/20 17:37:35;;;;;;;62.53;33.35;;;;;;;;;;6264884;28;20461;-71
2023/02/20 17:40:37;;;;;;;63.78;33.72;;;;;;;;;;6263979;28;20380;-71
2023/02/20 17:43:40;;;;;;;64.45;34.80;;;;;;;;;;6263086;28;20103;-71
2023/02/20 17:46:42;;;;;;;67.43;35.13;;;;;;;;;;6265061;28;20063;-71
2023/02/20 17:49:44;;;;;;;70.93;35.58;;;;;;;;;;6264071;28;20321;-72
2023/02/20 17:52:46;;;;;;;69.03;36.45;;;;;;;;;;6265932;28;20052;-72
2023/02/20 17:55:48;;;;;;;69.63;37.13;;;;;;;;;;6264952;28;20114;-76